Data for 03/01/2018

Time Sea-Level Adjusted Pressure Absolute Pressure Temperature Relative Humidity Dew Point   
(mb) (inHg) (mb) (inHg) (C) (F) (%) (C) (F)
00:05 1015 29.97 844 24.92 -6.5 20.3 51 -15 4.9
00:10 1015 29.97 844 24.92 -6.6 20.1 51 -15.2 4.7
00:15 1015 29.97 844 24.92 -6.5 20.3 50 -15.2 4.6
00:20 1015 29.97 844 24.92 -6.5 20.3 51 -15.1 4.9
00:25 1015 29.97 844 24.92 -6.4 20.5 50 -15.1 4.8
00:30 1015 29.97 844 24.92 -6.5 20.3 51 -15.1 4.9
00:35 1015 29.97 844 24.92 -6.6 20 51 -15.2 4.6
00:40 1015 29.97 844 24.92 -6.6 20 51 -15.2 4.6
00:45 1015 29.97 844 24.92 -6.7 19.9 51 -15.3 4.5
00:50 1015 29.97 844 24.92 -6.6 20.2 51 -15.2 4.6
00:55 1015 29.97 844 24.92 -6.6 20.1 51 -15.2 4.6
01:00 1014 29.94 844 24.92 -6.6 20.2 50 -15.3 4.5
01:05 1014 29.94 844 24.92 -6.6 20.2 50 -15.3 4.5
01:10 1014 29.94 844 24.92 -6.7 20 51 -15.3 4.5
01:15 1014 29.94 844 24.92 -6.7 20 51 -15.3 4.5
01:20 1014 29.94 843 24.89 -6.8 19.8 51 -15.3 4.5
01:25 1014 29.94 844 24.92 -6.7 20 51 -15.3 4.5
01:30 1014 29.94 844 24.92 -6.5 20.3 50 -15.3 4.5
01:35 1014 29.94 843 24.89 -6.4 20.5 50 -15.2 4.7
01:40 1014 29.94 843 24.89 -6.5 20.4 50 -15.2 4.7
01:45 1014 29.94 844 24.92 -6.5 20.2 51 -15 5
01:50 1014 29.94 843 24.89 -6.9 19.6 52 -15.3 4.5
01:55 1014 29.94 843 24.89 -6.8 19.8 51 -15.4 4.3
02:00 1014 29.94 843 24.89 -6.5 20.3 50 -15.2 4.7
02:05 1014 29.94 843 24.89 -6.7 19.9 51 -15.3 4.4
02:10 1014 29.94 843 24.89 -6.9 19.6 52 -15.3 4.5
02:15 1014 29.94 843 24.89 -6.6 20.1 51 -15.3 4.5
02:20 1014 29.94 843 24.89 -6.4 20.5 50 -15.2 4.6
02:25 1014 29.94 843 24.89 -6.4 20.5 50 -15.2 4.6
02:30 1014 29.94 843 24.89 -6.4 20.5 50 -15.2 4.6
02:35 1014 29.94 843 24.89 -6.5 20.3 50 -15.3 4.5
02:40 1014 29.94 843 24.89 -6.5 20.4 50 -15.3 4.5
02:45 1014 29.94 843 24.89 -6.5 20.2 50 -15.3 4.5
02:50 1014 29.94 843 24.89 -6.6 20.1 50 -15.3 4.5
02:55 1014 29.94 843 24.89 -6.6 20.1 50 -15.3 4.4
03:00 1014 29.94 843 24.89 -6.6 20.2 50 -15.4 4.3
03:05 1014 29.94 843 24.89 -6.6 20.1 50 -15.3 4.5
03:10 1014 29.94 843 24.89 -6.6 20.1 50 -15.3 4.5
03:15 1014 29.94 843 24.89 -6.7 20 50 -15.4 4.3
03:20 1014 29.94 843 24.89 -6.4 20.4 50 -15.2 4.7
03:25 1014 29.94 843 24.89 -6.3 20.6 49 -15.3 4.4
03:30 1014 29.94 843 24.89 -6.4 20.5 49 -15.3 4.4
03:35 1014 29.94 843 24.89 -6.5 20.3 50 -15.3 4.4
03:40 1014 29.94 843 24.89 -6.6 20.1 50 -15.3 4.4
03:45 1014 29.94 843 24.89 -6.7 20 50 -15.4 4.3
03:50 1014 29.94 843 24.89 -6.8 19.8 51 -15.3 4.4
03:55 1014 29.94 843 24.89 -6.7 20 51 -15.3 4.4
04:00 1013 29.91 843 24.89 -6.4 20.4 49 -15.4 4.3
04:05 1014 29.94 843 24.89 -6.2 20.9 49 -15.2 4.6
04:10 1014 29.94 843 24.89 -6.1 21 49 -15.3 4.5
04:15 1014 29.94 843 24.89 -6.1 21 49 -15.2 4.7
04:20 1014 29.94 843 24.89 -6.1 20.9 49 -15.3 4.5
04:25 1014 29.94 843 24.89 -6.1 21 49 -15.3 4.5
04:30 1014 29.94 843 24.89 -6 21.2 48 -15.2 4.6
04:35 1014 29.94 843 24.89 -5.9 21.3 47 -15.4 4.3
04:40 1014 29.94 843 24.89 -5.6 21.8 47 -15.3 4.5
04:45 1014 29.94 843 24.89 -5.5 22 47 -15.1 4.8
04:50 1014 29.94 843 24.89 -5.8 21.6 47 -15.3 4.4
04:55 1014 29.94 843 24.89 -5.8 21.6 47 -15.4 4.4
05:00 1014 29.94 843 24.89 -5.7 21.7 48 -15.2 4.6
05:05 1014 29.94 843 24.89 -5.8 21.6 47 -15.3 4.5
05:10 1014 29.94 843 24.89 -5.9 21.3 49 -15.1 4.9
05:15 1014 29.94 843 24.89 -6.1 21 49 -15.3 4.5
05:20 1014 29.94 843 24.89 -6.2 20.9 49 -15.2 4.7
05:25 1014 29.94 843 24.89 -6.3 20.6 50 -15.2 4.6
05:30 1013 29.91 843 24.89 -6.3 20.6 49 -15.3 4.4
05:35 1013 29.91 843 24.89 -6.3 20.7 49 -15.2 4.6
05:40 1013 29.91 843 24.89 -6.2 20.8 49 -15.3 4.4
05:45 1013 29.91 843 24.89 -6 21.2 48 -15.3 4.5
05:50 1013 29.91 842 24.86 -5.9 21.3 48 -15.2 4.6
05:55 1013 29.91 842 24.86 -5.9 21.4 48 -15.2 4.7
06:00 1013 29.91 842 24.86 -5.9 21.3 48 -15.2 4.6
06:05 1013 29.91 842 24.86 -6 21.3 49 -15.2 4.7
06:10 1013 29.91 842 24.86 -6 21.2 49 -15.1 4.9
06:15 1013 29.91 842 24.86 -6 21.1 49 -15 4.9
06:20 1013 29.91 842 24.86 -5.9 21.4 49 -15.1 4.9
06:25 1013 29.91 842 24.86 -5.7 21.7 48 -15 4.9
06:30 1013 29.91 842 24.86 -5.3 22.4 47 -15 5.1
06:35 1013 29.91 842 24.86 -5.2 22.7 47 -14.9 5.2
06:40 1013 29.91 842 24.86 -5.2 22.7 47 -14.9 5.2
06:45 1013 29.91 842 24.86 -5.1 22.8 48 -14.6 5.7
06:50 1013 29.91 842 24.86 -5.2 22.7 47 -14.7 5.5
06:55 1013 29.91 842 24.86 -5 23 47 -14.7 5.5
07:00 1013 29.91 842 24.86 -5 23 47 -14.7 5.6
07:05 1013 29.91 842 24.86 -4.9 23.2 47 -14.7 5.6
07:10 1013 29.91 842 24.86 -4.7 23.5 45 -14.9 5.2
07:15 1013 29.91 842 24.86 -4.5 24 44 -14.9 5.2
07:20 1013 29.91 842 24.86 -4.2 24.4 44 -14.8 5.4
07:25 1013 29.91 842 24.86 -4.1 24.7 42 -15.2 4.6
07:30 1013 29.91 842 24.86 -3.7 25.3 41 -15.1 4.8
07:35 1013 29.91 842 24.86 -3.5 25.7 42 -14.8 5.4
07:40 1013 29.91 843 24.89 -3.5 25.7 43 -14.4 6.2
07:45 1013 29.91 842 24.86 -3.4 25.9 41 -14.8 5.4
07:50 1013 29.91 842 24.86 -3.1 26.4 40 -14.8 5.4
07:55 1013 29.91 842 24.86 -3 26.6 43 -13.8 7.1
08:00 1013 29.91 842 24.86 -3.3 26.1 46 -13.3 8.1
08:05 1013 29.91 842 24.86 -3 26.6 45 -13.3 8.1
08:10 1013 29.91 842 24.86 -2.9 26.8 46 -13.1 8.4
08:15 1013 29.91 842 24.86 -2.9 26.8 45 -13.3 8
08:20 1013 29.91 842 24.86 -2.7 27.1 43 -13.6 7.4
08:25 1013 29.91 842 24.86 -2.5 27.5 43 -13.3 8
08:30 1013 29.91 842 24.86 -2.1 28.2 39 -14.3 6.2
08:35 1013 29.91 842 24.86 -1.9 28.6 39 -14.1 6.6
08:40 1013 29.91 842 24.86 -1.5 29.3 37 -14.4 6
08:45 1013 29.91 842 24.86 -1.3 29.7 37 -14.4 6.1
08:50 1013 29.91 842 24.86 -1.3 29.7 36 -14.4 6.1
08:55 1013 29.91 842 24.86 -1.2 29.8 37 -14.1 6.6
09:00 1013 29.91 842 24.86 -1.1 30 38 -13.9 7
09:05 1013 29.91 842 24.86 -1 30.3 37 -13.8 7.2
09:10 1013 29.91 842 24.86 -0.9 30.4 37 -14 6.8
09:15 1013 29.91 842 24.86 -0.7 30.8 37 -13.7 7.3
09:20 1013 29.91 842 24.86 -0.5 31.1 36 -13.9 7
09:25 1013 29.91 842 24.86 -0.3 31.4 36 -13.6 7.5
09:30 1013 29.91 842 24.86 -0.2 31.6 36 -13.7 7.3
09:35 1013 29.91 842 24.86 -0.1 31.8 36 -13.6 7.5
09:40 1013 29.91 842 24.86 0 32 35 -13.6 7.5
09:45 1013 29.91 842 24.86 0.2 32.3 35 -13.6 7.6
09:50 1013 29.91 842 24.86 0.4 32.7 35 -13.4 7.8
09:55 1013 29.91 842 24.86 0.6 33.1 34 -13.4 7.8
10:00 1013 29.91 842 24.86 0.7 33.3 34 -13.5 7.8
10:05 1013 29.91 842 24.86 0.9 33.5 33 -13.6 7.5
10:10 1013 29.91 842 24.86 1.1 34 33 -13.5 7.7
10:15 1013 29.91 842 24.86 1.1 34.1 33 -13.5 7.7
10:20 1013 29.91 842 24.86 1.4 34.5 32 -13.4 7.8
10:25 1012 29.88 842 24.86 1.6 34.8 33 -13.2 8.3
10:30 1012 29.88 842 24.86 1.8 35.3 32 -13.1 8.5
10:35 1012 29.88 842 24.86 1.9 35.5 32 -13.1 8.4
10:40 1012 29.88 842 24.86 2.3 36.2 31 -13 8.6
10:45 1012 29.88 842 24.86 2.6 36.7 31 -12.9 8.8
10:50 1012 29.88 842 24.86 2.6 36.7 33 -12.3 9.9
10:55 1012 29.88 842 24.86 2.9 37.2 33 -11.8 10.7
11:00 1012 29.88 842 24.86 2.7 36.9 35 -11.2 11.9
11:05 1012 29.88 842 24.86 2.3 36.2 33 -12.3 9.9
11:10 1012 29.88 841 24.83 2.3 36.1 33 -12.4 9.7
11:15 1012 29.88 841 24.83 2.6 36.8 33 -12.2 10
11:20 1012 29.88 841 24.83 2.9 37.2 30 -12.9 8.8
11:25 1012 29.88 841 24.83 2.7 36.8 31 -12.7 9.1
11:30 1012 29.88 841 24.83 2.7 36.8 31 -12.7 9.1
11:35 1012 29.88 841 24.83 2.8 37 30 -13.1 8.4
11:40 1012 29.88 841 24.83 3.1 37.5 29 -13.4 7.8
11:45 1012 29.88 841 24.83 3.5 38.3 29 -13 8.7
11:50 1012 29.88 841 24.83 3.2 37.8 28 -13.5 7.7
11:55 1011 29.85 841 24.83 3.3 38 31 -12.4 9.8
12:00 1011 29.85 841 24.83 4.4 39.9 28 -12.6 9.2
12:05 1011 29.85 841 24.83 4.8 40.6 28 -12.4 9.7
12:10 1011 29.85 841 24.83 4.9 40.8 27 -12.4 9.6
12:15 1011 29.85 841 24.83 4.6 40.2 30 -11.4 11.5
12:20 1011 29.85 841 24.83 3.9 38.9 32 -11.3 11.7
12:25 1011 29.85 841 24.83 2.9 37.2 36 -10.7 12.8
12:30 1012 29.88 841 24.83 2.7 36.9 36 -10.9 12.4
12:35 1012 29.88 841 24.83 2.3 36.2 37 -11.1 12.1
12:40 1011 29.85 841 24.83 2.1 35.8 38 -10.9 12.4
12:45 1011 29.85 841 24.83 2.2 36 35 -11.8 10.7
12:50 1011 29.85 841 24.83 2.4 36.2 35 -11.5 11.3
12:55 1011 29.85 841 24.83 2.4 36.4 36 -11.3 11.6
13:00 1011 29.85 841 24.83 2.7 36.9 34 -11.5 11.2
13:05 1011 29.85 841 24.83 2 35.6 35 -11.7 10.9
13:10 1011 29.85 841 24.83 1.3 34.3 36 -12.1 10.3
13:15 1011 29.85 840 24.81 1.7 35.1 33 -12.8 8.9
13:20 1011 29.85 840 24.81 2 35.7 34 -12.1 10.2
13:25 1011 29.85 840 24.81 2 35.6 32 -13.1 8.5
13:30 1011 29.85 840 24.81 2 35.7 32 -12.9 8.8
13:35 1011 29.85 840 24.81 3.8 38.9 29 -12.8 9
13:40 1011 29.85 840 24.81 3.8 38.8 29 -12.7 9.1
13:45 1011 29.85 840 24.81 2.7 36.8 30 -13.1 8.5
13:50 1011 29.85 840 24.81 2.8 37.1 30 -13.2 8.3
13:55 1011 29.85 840 24.81 2.5 36.5 31 -12.8 8.9
14:00 1011 29.85 840 24.81 3 37.4 30 -13.1 8.5
14:05 1011 29.85 840 24.81 3.1 37.6 31 -12.5 9.5
14:10 1011 29.85 840 24.81 3.8 38.8 30 -12.2 10
14:15 1011 29.85 840 24.81 3.7 38.7 31 -12 10.4
14:20 1011 29.85 840 24.81 3.5 38.2 31 -12 10.4
14:25 1011 29.85 840 24.81 3.7 38.7 30 -12.3 9.9
14:30 1011 29.85 840 24.81 3.9 39 32 -11.3 11.6
14:35 1011 29.85 840 24.81 3.8 38.9 31 -11.8 10.8
14:40 1011 29.85 840 24.81 3.7 38.6 31 -11.8 10.7
14:45 1011 29.85 840 24.81 3.7 38.6 33 -11.3 11.7
14:50 1011 29.85 840 24.81 3.8 38.8 32 -11.5 11.3
14:55 1011 29.85 840 24.81 3.8 38.9 33 -11.2 11.8
15:00 1011 29.85 840 24.81 4 39.1 32 -11.1 12
15:05 1011 29.85 840 24.81 4 39.2 35 -10.2 13.6
15:10 1011 29.85 840 24.81 3.7 38.7 35 -10.5 13.1
15:15 1011 29.85 840 24.81 3.5 38.3 35 -10.7 12.7
15:20 1011 29.85 840 24.81 3 37.4 34 -11.4 11.4
15:25 1011 29.85 840 24.81 3.2 37.8 37 -10.1 13.8
15:30 1011 29.85 840 24.81 3.1 37.5 36 -10.7 12.8
15:35 1011 29.85 840 24.81 3.2 37.7 36 -10.6 12.8
15:40 1011 29.85 840 24.81 3.2 37.8 37 -10.2 13.6
15:45 1011 29.85 840 24.81 3.1 37.6 37 -10.3 13.5
15:50 1011 29.85 840 24.81 3 37.4 34 -11.5 11.3
15:55 1011 29.85 840 24.81 3 37.4 32 -12.1 10.3
16:00 1011 29.85 840 24.81 2.9 37.2 34 -11.4 11.4
16:05 1011 29.85 840 24.81 2.4 36.4 37 -10.7 12.7
16:10 1011 29.85 840 24.81 2.3 36.1 39 -10.4 13.2
16:15 1011 29.85 840 24.81 2.3 36.2 38 -10.6 12.9
16:20 1011 29.85 840 24.81 2.2 36 37 -10.9 12.3
16:25 1011 29.85 840 24.81 2.2 36 38 -10.7 12.7
16:30 1011 29.85 840 24.81 2.2 36 40 -10 13.9
16:35 1011 29.85 840 24.81 2 35.6 39 -10.5 13.1
16:40 1011 29.85 840 24.81 1.8 35.3 38 -11 12.1
16:45 1011 29.85 840 24.81 1.8 35.3 41 -10.1 13.9
16:50 1011 29.85 840 24.81 1.5 34.7 41 -10.4 13.2
16:55 1011 29.85 840 24.81 1.5 34.6 40 -10.6 12.8
17:00 1011 29.85 840 24.81 1.2 34.1 40 -10.9 12.4
17:05 1011 29.85 840 24.81 1.3 34.3 40 -10.8 12.6
17:10 1011 29.85 840 24.81 1.5 34.8 39 -10.9 12.5
17:15 1011 29.85 840 24.81 1.4 34.5 40 -10.7 12.7
17:20 1011 29.85 840 24.81 1.1 34.1 40 -10.9 12.4
17:25 1011 29.85 840 24.81 1.5 34.7 41 -10.5 13.1
17:30 1011 29.85 840 24.81 1.1 34.1 45 -9.5 15
17:35 1011 29.85 840 24.81 1.5 34.7 44 -9.6 14.8
17:40 1011 29.85 840 24.81 1.1 34.1 45 -9.6 14.6
17:45 1011 29.85 840 24.81 1.1 34 45 -9.4 15.1
17:50 1011 29.85 840 24.81 1.1 34 46 -9.3 15.3
17:55 1011 29.85 840 24.81 1.3 34.3 47 -8.9 15.9
18:00 1011 29.85 840 24.81 1.4 34.5 46 -8.9 16
18:05 1011 29.85 840 24.81 1.4 34.5 47 -8.8 16.2
18:10 1011 29.85 840 24.81 1.2 34.1 47 -8.8 16.1
18:15 1011 29.85 840 24.81 1.3 34.3 47 -8.9 15.9
18:20 1011 29.85 840 24.81 1 33.8 48 -8.9 15.9
18:25 1011 29.85 840 24.81 1 33.8 48 -8.7 16.3
18:30 1011 29.85 840 24.81 1 33.7 48 -8.9 16.1
18:35 1011 29.85 840 24.81 1 33.8 48 -8.8 16.2
18:40 1011 29.85 840 24.81 0.9 33.7 48 -8.9 16
18:45 1011 29.85 840 24.81 0.9 33.6 48 -9 15.7
18:50 1011 29.85 840 24.81 0.8 33.5 48 -8.9 15.9
18:55 1011 29.85 840 24.81 0.8 33.5 48 -9.1 15.6
19:00 1011 29.85 840 24.81 0.8 33.4 48 -9 15.8
19:05 1011 29.85 840 24.81 1.1 33.9 47 -9.1 15.7
19:10 1010 29.83 840 24.81 1 33.8 48 -8.8 16.1
19:15 1010 29.83 840 24.81 1 33.8 48 -8.8 16.1
19:20 1010 29.83 840 24.81 0.9 33.7 49 -8.7 16.4
19:25 1010 29.83 840 24.81 0.8 33.5 49 -8.8 16.1
19:30 1010 29.83 840 24.81 0.9 33.6 49 -8.7 16.3
19:35 1010 29.83 839 24.78 0.8 33.5 49 -8.7 16.3
19:40 1010 29.83 840 24.81 0.7 33.3 50 -8.7 16.4
19:45 1010 29.83 840 24.81 0.7 33.2 50 -8.7 16.3
19:50 1010 29.83 840 24.81 0.6 33.1 49 -8.9 16
19:55 1010 29.83 840 24.81 1 33.8 47 -9.1 15.6
20:00 1010 29.83 840 24.81 1.5 34.7 47 -8.8 16.2
20:05 1010 29.83 840 24.81 1.4 34.5 48 -8.3 17
20:10 1011 29.85 840 24.81 1.1 34 50 -8.3 17.1
20:15 1011 29.85 840 24.81 1.1 33.9 50 -8.1 17.4
20:20 1011 29.85 840 24.81 0.9 33.6 51 -8.1 17.4
20:25 1011 29.85 840 24.81 1 33.9 52 -7.8 18
20:30 1011 29.85 840 24.81 0.8 33.5 52 -7.9 17.7
20:35 1011 29.85 840 24.81 1 33.7 51 -8 17.7
20:40 1011 29.85 840 24.81 1.2 34.1 51 -7.9 17.7
20:45 1011 29.85 840 24.81 1 33.8 52 -7.9 17.9
20:50 1011 29.85 840 24.81 0.6 33 52 -8.2 17.2
20:55 1011 29.85 840 24.81 0.6 33 52 -8.1 17.4
21:00 1011 29.85 840 24.81 0.5 33 52 -8.1 17.4
21:05 1011 29.85 840 24.81 0.4 32.7 53 -8.1 17.4
21:10 1011 29.85 840 24.81 0.6 33.2 50 -8.6 16.5
21:15 1011 29.85 840 24.81 0.9 33.5 51 -8.3 17.1
21:20 1011 29.85 840 24.81 0.5 33 51 -8.3 17
21:25 1011 29.85 840 24.81 0.4 32.7 52 -8.4 16.9
21:30 1011 29.85 840 24.81 0.2 32.4 52 -8.5 16.8
21:35 1011 29.85 840 24.81 0.2 32.3 53 -8.4 16.9
21:40 1010 29.83 840 24.81 0.5 33 52 -8.3 17
21:45 1010 29.83 840 24.81 0.7 33.3 51 -8.2 17.2
21:50 1010 29.83 839 24.78 0.8 33.5 51 -8.2 17.2
21:55 1010 29.83 839 24.78 0.3 32.6 53 -8.2 17.3
22:00 1010 29.83 839 24.78 0 32.1 54 -8.3 17
22:05 1010 29.83 839 24.78 0.6 33.1 52 -8.2 17.3
22:10 1010 29.83 839 24.78 0.3 32.5 54 -8 17.5
22:15 1010 29.83 839 24.78 0.1 32.1 54 -8.1 17.4
22:20 1010 29.83 839 24.78 0.4 32.8 53 -8.1 17.4
22:25 1010 29.83 839 24.78 0.5 32.9 53 -8 17.6
22:30 1010 29.83 839 24.78 0.4 32.8 53 -8 17.6
22:35 1010 29.83 839 24.78 0.4 32.7 53 -8.1 17.5
22:40 1010 29.83 839 24.78 0.3 32.5 54 -7.9 17.8
22:45 1010 29.83 839 24.78 0.4 32.7 53 -8.1 17.5
22:50 1010 29.83 839 24.78 0.5 32.9 53 -7.9 17.7
22:55 1010 29.83 839 24.78 0.5 32.9 54 -7.8 17.9
23:00 1009 29.8 839 24.78 0.5 32.8 54 -7.9 17.8
23:05 1010 29.83 839 24.78 0.5 32.9 54 -7.9 17.8
23:10 1010 29.83 839 24.78 0.5 33 53 -7.9 17.8
23:15 1010 29.83 839 24.78 0.6 33.1 53 -7.9 17.8
23:20 1010 29.83 839 24.78 0.5 32.8 53 -8 17.7
23:25 1010 29.83 839 24.78 0.7 33.3 53 -7.8 18
23:30 1010 29.83 839 24.78 0.7 33.3 52 -8 17.7
23:35 1010 29.83 839 24.78 0.8 33.5 53 -7.8 17.9
23:40 1009 29.8 839 24.78 1 33.8 52 -7.7 18.1
23:45 1009 29.8 839 24.78 0.9 33.7 52 -7.8 18
23:50 1009 29.8 838 24.75 1 33.8 52 -7.7 18.1
23:55 1009 29.8 838 24.75 1.1 33.9 52 -7.8 18
24:00 1009 29.8 838 24.75 1 33.7 52 -7.7 18.1